ドバイ の空港の天気 - METARとTAF

ドバイ国際空港 ( OMDB / DXB ) - アラブ首長国連邦 ドバイ
飛行場実況気象(Metar)
観測時間08/18 17:00 GST (08/18 13:00 UTC)
風向・風速北 6m/s
視程6000m
天気現象
なし
気温36℃
湿度71%
気圧995hPa
METAROMDB 181300Z 35011KT 320V020 6000 NSC 36/30 Q0995 NOSIG
過去の天気等 Google飛行場航空写真 Wunderground天気予報

過去48時間のMETAR

飛行場予報(TAF)
発表時間: 8/18 14:57 GST (8/18 10:57 UTC)
予報対象時間: 18日16時 GST ~ 19日22時 GST
風向・風速北北西 5m/s
視程7000m
なし
18日16時 GST から 確率 30% で
視程4000m
天気現象風塵
18日22時 GST ~ 18日24時 GST に徐々に
風向・風速東北東 3m/s
19日6時 GST から 確率 30% で
視程4000m
天気現象煙霧
19日8時 GST ~ 19日10時 GST に徐々に
風向・風速南 5m/s
19日11時 GST ~ 19日13時 GST に徐々に
風向・風速北北西 6m/s
TAF OMDB 181057Z 1812/1918 34010KT 7000 NSC
PROB30 1812/1815 4000 DU
BECMG 1818/1820 06005KT
PROB30 1902/1904 4000 HZ
BECMG 1904/1906 17010KT
BECMG 1907/1909 33012KT